Rauchtown, Pennsylvania
Current Conditions -  °F | °C
As of 9:54 AM on Thursday 23 Oct 2014 (Local Time) from KIPT Reporting Station
Overcast Overcast  
Wind Chill: 53°   Ceiling: 2500
Heat Index: 53°   Visibility: 10mi
Dew Point: 42°   Wind: 13mph
Humidity: 66%   Direction: 300°WNW
Pressure: 29.92"   Gusts: 23mph
Location:  41.1288°N, 77.1989°W
Report Text: KIPT 231354Z 30011G20KT 10SM OVC025 12/06 A2992 RMK AO2 SLP133 T01170056
Loading
Personal Weather Stations






























Interactive Weather Map
Tropical Storm Tracking
New forecast layout! Learn more

10-Day Weather Forecast

Advertisements
Track Severe Weather on mobile